Time;durP1;ratioP1;P1;durP2;ratioP2;P2;SDS_P1;SDS_P2;PMS_P1;PMS_P2;Temp;Humidity;BMP_temperature;BMP_pressure;BME280_temperature;BME280_humidity;BME280_pressure;Samples;Min_cycle;Max_cycle;Signal;HPM_P1;HPM_P2
2022/01/27 00:05:12;;;;;;;25.58;11.30;;;;;;;;;;4993557;28;20026;-43
2022/01/27 00:07:37;;;;;;;25.77;12.32;;;;;;;;;;4992467;28;20053;-42
2022/01/27 00:12:32;;;;;;;27.43;12.00;;;;;;;;;;4993072;28;20062;-41
2022/01/27 00:15:09;;;;;;;24.88;11.40;;;;;;;;;;4992852;28;20085;-41
2022/01/27 00:17:40;;;;;;;24.58;12.30;;;;;;;;;;4992312;28;20042;-43
2022/01/27 00:20:06;;;;;;;26.08;10.98;;;;;;;;;;4992512;28;20493;-41
2022/01/27 00:22:32;;;;;;;23.38;11.38;;;;;;;;;;4992503;28;20475;-41
2022/01/27 00:24:57;;;;;;;28.50;11.65;;;;;;;;;;4992921;28;20074;-41
2022/01/27 00:27:22;;;;;;;26.20;11.80;;;;;;;;;;4991655;28;20062;-41
2022/01/27 00:29:48;;;;;;;29.52;11.95;;;;;;;;;;4993222;28;20027;-43
2022/01/27 00:32:13;;;;;;;26.73;11.73;;;;;;;;;;4993159;28;20113;-41
2022/01/27 00:34:39;;;;;;;30.67;12.27;;;;;;;;;;4993127;28;20023;-40
2022/01/27 00:37:04;;;;;;;28.15;12.00;;;;;;;;;;4992860;28;20066;-40
2022/01/27 00:39:30;;;;;;;21.27;9.02;;;;;;;;;;4993063;28;20526;-42
2022/01/27 00:41:55;;;;;;;26.40;11.38;;;;;;;;;;4992362;28;20165;-40
2022/01/27 00:44:22;;;;;;;25.77;11.73;;;;;;;;;;4992323;28;20030;-41
2022/01/27 00:46:47;;;;;;;26.83;11.13;;;;;;;;;;4991489;28;20478;-42
2022/01/27 00:49:13;;;;;;;27.80;11.35;;;;;;;;;;4991734;28;20042;-41
2022/01/27 00:51:42;;;;;;;26.40;12.43;;;;;;;;;;4992097;28;20022;-44
2022/01/27 00:54:14;;;;;;;28.65;11.43;;;;;;;;;;4992235;28;20030;-44
2022/01/27 00:56:58;;;;;;;25.80;11.88;;;;;;;;;;4992836;28;20413;-44
2022/01/27 01:02:14;;;;;;;25.55;11.93;;;;;;;;;;4992418;28;20035;-43
2022/01/27 01:04:44;;;;;;;26.17;11.55;;;;;;;;;;4992387;28;20037;-40
2022/01/27 01:07:11;;;;;;;29.10;12.45;;;;;;;;;;4992771;28;20057;-42
2022/01/27 01:15:21;;;;;;;31.00;11.88;;;;;;;;;;4973193;28;20130;-42
2022/01/27 01:31:10;;;;;;;26.55;11.45;;;;;;;;;;4992840;28;20119;-42
2022/01/27 01:33:38;;;;;;;25.57;11.13;;;;;;;;;;4995167;28;20036;-42
2022/01/27 01:36:27;;;;;;;25.23;11.98;;;;;;;;;;4996184;28;20120;-42
2022/01/27 01:38:52;;;;;;;24.30;11.40;;;;;;;;;;4995820;28;20109;-43
2022/01/27 01:41:18;;;;;;;26.25;12.52;;;;;;;;;;4996159;28;20084;-42
2022/01/27 01:43:43;;;;;;;27.40;12.07;;;;;;;;;;4995785;28;20380;-42
2022/01/27 01:46:09;;;;;;;21.45;10.90;;;;;;;;;;4995762;28;20030;-44
2022/01/27 01:48:34;;;;;;;22.17;11.10;;;;;;;;;;4995760;28;20034;-43
2022/01/27 01:51:02;;;;;;;25.27;10.35;;;;;;;;;;4995696;28;20032;-43
2022/01/27 01:53:27;;;;;;;24.05;11.30;;;;;;;;;;4995553;28;20081;-43
2022/01/27 01:55:53;;;;;;;21.98;10.85;;;;;;;;;;4995536;28;20030;-42
2022/01/27 01:58:18;;;;;;;23.35;10.90;;;;;;;;;;4995396;28;20108;-41
2022/01/27 02:00:44;;;;;;;25.38;11.95;;;;;;;;;;4995824;28;20061;-41
2022/01/27 02:03:09;;;;;;;23.15;11.20;;;;;;;;;;4995427;28;20069;-41
2022/01/27 02:05:40;;;;;;;29.95;11.65;;;;;;;;;;4995239;28;20026;-40
2022/01/27 02:19:24;;;;;;;24.13;10.77;;;;;;;;;;4995245;28;20041;-42
2022/01/27 02:21:53;;;;;;;29.33;12.02;;;;;;;;;;4995111;28;20089;-42
2022/01/27 02:24:19;;;;;;;29.27;13.15;;;;;;;;;;4995086;28;20069;-41
2022/01/27 02:26:48;;;;;;;25.17;12.23;;;;;;;;;;4995054;28;20045;-41
2022/01/27 02:29:13;;;;;;;27.55;12.02;;;;;;;;;;4994929;28;20109;-41
2022/01/27 02:31:39;;;;;;;28.50;12.80;;;;;;;;;;4995219;28;20427;-42
2022/01/27 02:34:05;;;;;;;24.83;11.43;;;;;;;;;;4995184;28;20467;-40
2022/01/27 02:36:33;;;;;;;25.58;11.15;;;;;;;;;;4994900;28;20433;-42
2022/01/27 02:38:58;;;;;;;23.95;11.48;;;;;;;;;;4994585;28;20052;-42
2022/01/27 02:41:27;;;;;;;24.50;11.70;;;;;;;;;;4994986;28;20121;-41
2022/01/27 02:43:55;;;;;;;28.02;11.98;;;;;;;;;;4994570;28;20030;-42
2022/01/27 02:46:29;;;;;;;27.02;12.27;;;;;;;;;;4994954;28;20029;-43
2022/01/27 02:48:55;;;;;;;25.60;11.88;;;;;;;;;;4994960;28;20382;-42
2022/01/27 02:51:20;;;;;;;22.42;11.35;;;;;;;;;;4994476;28;20026;-42
2022/01/27 02:53:46;;;;;;;28.40;12.68;;;;;;;;;;4994736;28;20053;-42
2022/01/27 02:56:11;;;;;;;25.77;12.05;;;;;;;;;;4994774;28;20034;-43
2022/01/27 02:58:37;;;;;;;25.38;11.98;;;;;;;;;;4993467;28;20084;-44
2022/01/27 03:01:03;;;;;;;24.17;11.55;;;;;;;;;;4994659;28;20029;-43
2022/01/27 03:03:29;;;;;;;28.63;12.70;;;;;;;;;;4994345;28;20157;-44
2022/01/27 03:05:54;;;;;;;26.60;11.70;;;;;;;;;;4976963;28;20101;-42
2022/01/27 03:08:20;;;;;;;25.15;12.02;;;;;;;;;;4994494;28;20377;-41
2022/01/27 03:10:57;;;;;;;26.33;12.77;;;;;;;;;;4994434;28;20533;-41
2022/01/27 03:13:22;;;;;;;27.95;11.80;;;;;;;;;;4993992;28;20101;-41
2022/01/27 03:15:48;;;;;;;27.38;12.50;;;;;;;;;;4994441;28;20429;-41
2022/01/27 03:18:13;;;;;;;24.95;10.52;;;;;;;;;;4994035;28;20482;-42
2022/01/27 03:20:39;;;;;;;22.13;11.10;;;;;;;;;;4993995;28;20465;-42
2022/01/27 03:23:06;;;;;;;28.23;12.00;;;;;;;;;;4994247;28;20085;-41
2022/01/27 03:25:32;;;;;;;25.55;11.75;;;;;;;;;;4994116;28;20045;-41
2022/01/27 03:27:58;;;;;;;23.95;11.48;;;;;;;;;;4994185;28;20042;-41
2022/01/27 03:30:23;;;;;;;26.17;12.07;;;;;;;;;;4993819;28;20041;-41
2022/01/27 03:32:49;;;;;;;25.88;11.27;;;;;;;;;;4994014;28;20035;-43
2022/01/27 03:35:14;;;;;;;24.85;11.20;;;;;;;;;;4993662;28;20026;-42
2022/01/27 03:37:40;;;;;;;21.40;11.07;;;;;;;;;;4993951;28;20101;-44
2022/01/27 03:40:06;;;;;;;24.77;12.52;;;;;;;;;;4993605;28;20474;-43
2022/01/27 03:42:32;;;;;;;28.25;11.40;;;;;;;;;;4993831;28;20020;-42
2022/01/27 03:44:57;;;;;;;28.77;12.55;;;;;;;;;;4993580;28;20033;-44
2022/01/27 03:47:23;;;;;;;24.27;12.32;;;;;;;;;;4993523;28;20041;-43
2022/01/27 03:49:48;;;;;;;25.58;11.80;;;;;;;;;;4993483;28;20030;-43
2022/01/27 03:52:13;;;;;;;30.08;13.77;;;;;;;;;;4993748;28;20068;-42
2022/01/27 03:54:39;;;;;;;26.25;12.68;;;;;;;;;;4992210;28;20038;-42
2022/01/27 03:57:05;;;;;;;29.10;11.98;;;;;;;;;;4993591;28;20077;-41
2022/01/27 03:59:31;;;;;;;26.77;12.32;;;;;;;;;;4993506;28;20030;-42
2022/01/27 04:01:57;;;;;;;25.58;12.15;;;;;;;;;;4993351;28;20447;-43
2022/01/27 04:04:24;;;;;;;24.65;12.35;;;;;;;;;;4993579;28;20355;-41
2022/01/27 04:06:52;;;;;;;27.73;13.23;;;;;;;;;;4993281;28;20037;-41
2022/01/27 04:09:18;;;;;;;26.85;12.48;;;;;;;;;;4993147;28;20479;-42
2022/01/27 04:11:44;;;;;;;23.90;12.07;;;;;;;;;;4993517;28;20393;-43
2022/01/27 04:14:13;;;;;;;22.67;12.32;;;;;;;;;;4993017;28;20117;-44
2022/01/27 04:16:38;;;;;;;31.92;13.68;;;;;;;;;;4993199;28;20033;-44
2022/01/27 04:19:04;;;;;;;28.58;13.15;;;;;;;;;;4993076;28;20101;-44
2022/01/27 04:21:29;;;;;;;29.00;12.75;;;;;;;;;;4993108;28;20061;-43
2022/01/27 04:23:55;;;;;;;28.42;13.80;;;;;;;;;;4993129;28;20022;-42
2022/01/27 04:26:28;;;;;;;26.75;12.65;;;;;;;;;;4991803;28;20027;-44
2022/01/27 04:28:56;;;;;;;27.50;12.60;;;;;;;;;;4993356;28;20045;-44
2022/01/27 04:31:24;;;;;;;27.63;13.00;;;;;;;;;;4993235;28;20413;-44
2022/01/27 04:33:50;;;;;;;26.13;11.98;;;;;;;;;;4993290;28;20026;-43
2022/01/27 04:36:25;;;;;;;29.05;13.10;;;;;;;;;;4993262;28;20030;-42
2022/01/27 04:38:58;;;;;;;30.02;13.48;;;;;;;;;;4991753;28;20041;-41
2022/01/27 04:41:39;;;;;;;33.47;13.50;;;;;;;;;;4992971;28;20031;-42
2022/01/27 04:46:37;;;;;;;30.23;13.73;;;;;;;;;;4993190;28;20053;-41
2022/01/27 04:49:05;;;;;;;32.00;14.02;;;;;;;;;;4992903;28;20096;-41
2022/01/27 04:51:31;;;;;;;26.98;12.35;;;;;;;;;;4991637;28;20027;-42
2022/01/27 04:56:23;;;;;;;32.13;12.27;;;;;;;;;;4993167;28;20022;-42
2022/01/27 04:58:54;;;;;;;30.77;12.50;;;;;;;;;;4992797;28;20102;-42
2022/01/27 05:01:24;;;;;;;;;;;;;;;;;;4993419;28;20027;-42
2022/01/27 05:04:14;;;;;;;23.15;11.73;;;;;;;;;;4992666;28;20384;-40
2022/01/27 05:06:35;;;;;;;27.63;12.23;;;;;;;;;;4992310;28;20121;-40
2022/01/27 05:09:01;;;;;;;29.20;12.93;;;;;;;;;;4996285;28;20126;-42
2022/01/27 05:11:31;;;;;;;24.05;12.63;;;;;;;;;;4996287;28;20026;-43
2022/01/27 05:14:15;;;;;;;27.65;12.80;;;;;;;;;;4996424;28;20047;-42
2022/01/27 05:16:40;;;;;;;24.92;11.25;;;;;;;;;;4996571;28;20041;-43
2022/01/27 05:19:06;;;;;;;24.27;11.60;;;;;;;;;;4996425;28;20466;-43
2022/01/27 05:21:35;;;;;;;23.50;11.15;;;;;;;;;;4995819;28;20647;-42
2022/01/27 05:24:02;;;;;;;24.17;11.52;;;;;;;;;;4995627;28;20058;-41
2022/01/27 05:26:27;;;;;;;25.40;11.30;;;;;;;;;;4995994;28;20027;-42
2022/01/27 05:28:53;;;;;;;33.95;12.23;;;;;;;;;;4996260;28;20110;-42
2022/01/27 05:31:19;;;;;;;27.33;12.48;;;;;;;;;;4996255;28;20034;-43
2022/01/27 05:33:44;;;;;;;33.00;13.85;;;;;;;;;;4996283;28;20030;-41
2022/01/27 05:36:10;;;;;;;29.98;13.13;;;;;;;;;;4996250;28;20053;-41
2022/01/27 05:38:38;;;;;;;23.88;11.18;;;;;;;;;;4996076;28;20029;-41
2022/01/27 05:41:05;;;;;;;30.52;13.38;;;;;;;;;;4995856;28;20490;-44
2022/01/27 05:43:32;;;;;;;30.67;14.05;;;;;;;;;;4995853;28;20034;-43
2022/01/27 05:45:57;;;;;;;29.55;12.88;;;;;;;;;;4994508;28;20589;-40
2022/01/27 05:48:23;;;;;;;27.60;13.82;;;;;;;;;;4995702;28;20070;-44
2022/01/27 05:50:48;;;;;;;26.95;12.18;;;;;;;;;;4995589;28;20026;-42
2022/01/27 05:53:14;;;;;;;28.00;13.32;;;;;;;;;;4995953;28;20026;-40
2022/01/27 05:55:40;;;;;;;31.00;13.27;;;;;;;;;;4995949;28;20108;-41
2022/01/27 05:58:06;;;;;;;28.83;12.98;;;;;;;;;;4995551;28;20541;-43
2022/01/27 06:00:31;;;;;;;37.05;15.50;;;;;;;;;;4995767;28;20524;-42
2022/01/27 06:02:57;;;;;;;29.85;14.45;;;;;;;;;;4995677;28;20030;-43
2022/01/27 06:05:23;;;;;;;45.08;16.35;;;;;;;;;;4994145;28;20404;-45
2022/01/27 06:07:48;;;;;;;29.35;14.38;;;;;;;;;;4995234;28;20109;-44
2022/01/27 06:10:14;;;;;;;25.73;11.32;;;;;;;;;;4995361;28;20030;-44
2022/01/27 06:12:51;;;;;;;20.27;9.77;;;;;;;;;;4994006;28;20101;-42
2022/01/27 06:15:17;;;;;;;36.53;14.25;;;;;;;;;;4993950;28;20482;-42
2022/01/27 06:17:44;;;;;;;38.08;14.77;;;;;;;;;;4995097;28;20034;-43
2022/01/27 06:20:10;;;;;;;32.17;13.68;;;;;;;;;;4995063;28;20049;-45
2022/01/27 06:22:35;;;;;;;38.53;15.55;;;;;;;;;;4995293;28;20466;-44
2022/01/27 06:25:01;;;;;;;28.80;12.60;;;;;;;;;;4995033;28;20018;-43
2022/01/27 06:27:27;;;;;;;35.95;15.40;;;;;;;;;;4994954;28;20031;-43
2022/01/27 06:29:52;;;;;;;37.20;16.98;;;;;;;;;;4994956;28;20082;-41
2022/01/27 06:32:17;;;;;;;33.20;14.38;;;;;;;;;;4994907;28;20033;-41
2022/01/27 06:34:43;;;;;;;31.85;15.13;;;;;;;;;;4994726;28;20022;-40
2022/01/27 06:37:08;;;;;;;40.60;16.15;;;;;;;;;;4994936;28;20058;-41
2022/01/27 06:39:34;;;;;;;38.35;16.27;;;;;;;;;;4994993;28;20031;-40
2022/01/27 06:42:01;;;;;;;33.85;16.15;;;;;;;;;;4994749;28;20037;-40
2022/01/27 06:44:27;;;;;;;38.70;15.82;;;;;;;;;;4994697;28;20470;-43
2022/01/27 06:46:52;;;;;;;38.10;15.60;;;;;;;;;;4994575;28;20474;-45
2022/01/27 06:49:18;;;;;;;34.10;15.25;;;;;;;;;;4994908;28;20089;-43
2022/01/27 06:51:46;;;;;;;33.35;14.45;;;;;;;;;;4994728;28;20037;-42
2022/01/27 06:54:13;;;;;;;32.63;13.45;;;;;;;;;;4994808;28;20038;-43
2022/01/27 06:56:39;;;;;;;35.78;14.80;;;;;;;;;;4994393;28;20027;-43
2022/01/27 06:59:05;;;;;;;40.30;16.83;;;;;;;;;;4994504;28;20117;-42
2022/01/27 07:01:31;;;;;;;37.78;16.95;;;;;;;;;;4994331;28;20065;-42
2022/01/27 07:03:56;;;;;;;33.25;16.52;;;;;;;;;;4994350;28;20513;-42
2022/01/27 07:06:22;;;;;;;36.72;16.85;;;;;;;;;;4994114;28;20026;-42
2022/01/27 07:08:47;;;;;;;40.80;16.73;;;;;;;;;;4994450;28;20062;-43
2022/01/27 07:11:13;;;;;;;36.38;16.05;;;;;;;;;;4994138;28;20120;-42
2022/01/27 07:13:40;;;;;;;35.25;15.88;;;;;;;;;;4994163;28;20050;-42
2022/01/27 07:16:08;;;;;;;30.27;15.55;;;;;;;;;;4994053;28;20080;-42
2022/01/27 07:18:34;;;;;;;36.70;17.15;;;;;;;;;;4994262;28;20034;-42
2022/01/27 07:21:00;;;;;;;42.67;18.17;;;;;;;;;;4993913;28;20486;-43
2022/01/27 07:23:25;;;;;;;40.53;17.13;;;;;;;;;;4994151;28;20030;-43
2022/01/27 07:25:51;;;;;;;34.38;16.88;;;;;;;;;;4993800;28;20033;-43
2022/01/27 07:28:16;;;;;;;36.05;17.02;;;;;;;;;;4993708;28;20030;-41
2022/01/27 07:30:42;;;;;;;38.70;19.02;;;;;;;;;;4993318;28;20121;-42
2022/01/27 07:33:07;;;;;;;38.55;17.77;;;;;;;;;;4993744;28;20022;-42
2022/01/27 07:35:33;;;;;;;32.42;15.75;;;;;;;;;;4993716;28;20124;-45
2022/01/27 07:37:58;;;;;;;38.22;17.85;;;;;;;;;;4993975;28;20406;-43
2022/01/27 07:40:24;;;;;;;27.55;12.60;;;;;;;;;;4993781;28;20500;-41
2022/01/27 07:42:49;;;;;;;39.92;17.08;;;;;;;;;;4993826;28;20027;-42
2022/01/27 07:45:15;;;;;;;33.30;16.77;;;;;;;;;;4993583;28;20054;-42
2022/01/27 07:47:40;;;;;;;39.53;18.00;;;;;;;;;;4993526;28;20102;-43
2022/01/27 07:50:06;;;;;;;37.45;16.60;;;;;;;;;;4993471;28;20026;-42
2022/01/27 07:52:32;;;;;;;35.38;15.90;;;;;;;;;;4993421;28;20034;-42
2022/01/27 07:54:57;;;;;;;34.33;16.98;;;;;;;;;;4993645;28;20029;-43
2022/01/27 07:57:23;;;;;;;36.40;16.25;;;;;;;;;;4993663;28;20381;-42
2022/01/27 07:59:48;;;;;;;37.40;16.90;;;;;;;;;;4993440;28;20036;-41
2022/01/27 08:02:13;;;;;;;36.25;17.13;;;;;;;;;;4993381;28;20026;-43
2022/01/27 08:04:39;;;;;;;31.85;17.27;;;;;;;;;;4991924;28;20054;-44
2022/01/27 08:07:04;;;;;;;35.55;15.82;;;;;;;;;;4993159;28;20400;-41
2022/01/27 08:09:30;;;;;;;30.80;15.23;;;;;;;;;;4993142;28;20073;-43
2022/01/27 08:11:56;;;;;;;35.85;16.73;;;;;;;;;;4993142;28;20026;-43
2022/01/27 08:14:21;;;;;;;38.65;19.08;;;;;;;;;;4993029;28;20058;-43
2022/01/27 08:16:47;;;;;;;43.45;17.75;;;;;;;;;;4993046;28;20026;-43
2022/01/27 08:19:13;;;;;;;38.08;17.10;;;;;;;;;;4992873;28;20347;-42
2022/01/27 08:21:38;;;;;;;39.80;18.15;;;;;;;;;;4993311;28;20031;-43
2022/01/27 08:24:04;;;;;;;35.85;17.08;;;;;;;;;;4993061;28;20015;-44
2022/01/27 08:26:41;;;;;;;33.20;16.58;;;;;;;;;;4993029;28;20076;-40
2022/01/27 08:29:21;;;;;;;34.72;16.85;;;;;;;;;;4993053;28;20049;-41
2022/01/27 08:31:59;;;;;;;31.00;15.73;;;;;;;;;;4993000;28;20536;-40
2022/01/27 08:34:34;;;;;;;35.13;15.35;;;;;;;;;;4993234;28;20142;-42
2022/01/27 08:37:05;;;;;;;36.92;16.77;;;;;;;;;;4993265;28;20026;-43
2022/01/27 08:39:31;;;;;;;31.02;16.15;;;;;;;;;;4992024;28;20034;-41
2022/01/27 08:41:57;;;;;;;34.33;15.88;;;;;;;;;;4993070;28;20433;-40
2022/01/27 08:44:22;;;;;;;26.60;13.10;;;;;;;;;;4995154;28;20031;-41
2022/01/27 08:46:48;;;;;;;33.13;16.25;;;;;;;;;;4995324;28;20088;-42
2022/01/27 08:49:14;;;;;;;29.80;15.52;;;;;;;;;;4995075;28;20045;-41
2022/01/27 08:51:39;;;;;;;33.95;15.88;;;;;;;;;;4996937;28;20038;-40
2022/01/27 08:54:05;;;;;;;28.00;13.52;;;;;;;;;;4996661;28;20030;-41
2022/01/27 08:56:30;;;;;;;27.25;14.85;;;;;;;;;;4996468;28;20031;-44
2022/01/27 08:58:57;;;;;;;30.30;15.15;;;;;;;;;;4996222;28;20077;-43
2022/01/27 09:01:24;;;;;;;34.53;14.85;;;;;;;;;;4996660;28;20030;-43
2022/01/27 09:03:51;;;;;;;27.92;14.63;;;;;;;;;;4996730;28;20426;-45
2022/01/27 09:06:18;;;;;;;35.17;17.02;;;;;;;;;;5004410;28;20055;-47
2022/01/27 09:08:44;;;;;;;30.73;16.60;;;;;;;;;;5001612;28;20049;-45
2022/01/27 09:11:10;;;;;;;30.17;16.25;;;;;;;;;;5005493;28;20362;-39
2022/01/27 09:13:37;;;;;;;24.98;13.98;;;;;;;;;;5004612;28;20046;-38
2022/01/27 09:16:03;;;;;;;33.47;17.20;;;;;;;;;;5002755;28;20058;-40
2022/01/27 09:18:29;;;;;;;30.88;17.17;;;;;;;;;;4995659;28;20125;-44
2022/01/27 09:20:56;;;;;;;36.47;16.90;;;;;;;;;;4994754;28;20110;-41
2022/01/27 09:23:22;;;;;;;30.75;17.00;;;;;;;;;;4994347;28;20098;-43
2022/01/27 09:25:49;;;;;;;29.48;16.77;;;;;;;;;;4994471;28;20026;-40
2022/01/27 09:28:16;;;;;;;29.92;18.08;;;;;;;;;;5251358;23;19998;-46
2022/01/27 09:30:43;;;;;;;31.52;17.20;;;;;;;;;;5003215;28;20400;-45
2022/01/27 09:33:09;;;;;;;27.08;16.00;;;;;;;;;;5002724;28;20129;-44
2022/01/27 09:35:35;;;;;;;27.67;15.70;;;;;;;;;;5004795;28;20019;-44
2022/01/27 09:38:00;;;;;;;28.45;16.20;;;;;;;;;;5003175;28;20041;-39
2022/01/27 09:40:28;;;;;;;31.83;18.63;;;;;;;;;;5008097;28;20524;-39
2022/01/27 09:42:55;;;;;;;29.83;17.23;;;;;;;;;;5014953;28;20033;-39
2022/01/27 09:45:22;;;;;;;27.17;16.13;;;;;;;;;;5013826;28;20064;-41
2022/01/27 09:47:56;;;;;;;30.42;16.98;;;;;;;;;;5014004;28;20030;-47
2022/01/27 09:50:48;;;;;;;34.45;18.13;;;;;;;;;;5012818;28;20045;-39
2022/01/27 09:53:14;;;;;;;27.38;16.55;;;;;;;;;;5012825;28;20030;-49
2022/01/27 09:55:40;;;;;;;24.52;15.43;;;;;;;;;;5013932;28;20384;-43
2022/01/27 09:58:06;;;;;;;30.92;15.82;;;;;;;;;;5013553;28;20052;-40
2022/01/27 10:00:32;;;;;;;26.33;15.00;;;;;;;;;;5013804;28;20603;-44
2022/01/27 10:03:16;;;;;;;28.65;15.55;;;;;;;;;;5013685;28;20057;-43
2022/01/27 10:05:43;;;;;;;28.35;17.60;;;;;;;;;;5013354;28;20025;-50
2022/01/27 10:08:16;;;;;;;27.02;16.55;;;;;;;;;;5015262;28;20026;-55
2022/01/27 10:10:47;;;;;;;29.65;16.65;;;;;;;;;;5015165;28;20041;-53
2022/01/27 10:13:36;;;;;;;26.65;15.80;;;;;;;;;;5014748;28;20060;-53
2022/01/27 10:16:02;;;;;;;28.70;15.38;;;;;;;;;;5015070;28;20092;-52
2022/01/27 10:18:35;;;;;;;35.33;17.13;;;;;;;;;;5013724;28;20022;-50
2022/01/27 10:21:08;;;;;;;26.45;15.75;;;;;;;;;;5014938;28;20034;-45
2022/01/27 10:23:39;;;;;;;28.88;15.98;;;;;;;;;;5014765;28;20026;-50
2022/01/27 10:26:15;;;;;;;25.23;15.35;;;;;;;;;;5014394;28;20051;-57
2022/01/27 10:28:47;;;;;;;27.70;16.45;;;;;;;;;;5014398;28;20555;-44
2022/01/27 10:31:23;;;;;;;24.73;14.55;;;;;;;;;;5014602;28;20385;-53
2022/01/27 10:34:03;;;;;;;27.38;16.17;;;;;;;;;;5013407;28;20220;-57
2022/01/27 10:36:35;;;;;;;27.33;16.88;;;;;;;;;;5014570;28;20034;-57
2022/01/27 10:39:22;;;;;;;27.00;16.27;;;;;;;;;;5014209;28;20495;-51
2022/01/27 10:42:00;;;;;;;28.95;17.55;;;;;;;;;;5014585;28;20411;-53
2022/01/27 10:44:45;;;;;;;31.23;17.35;;;;;;;;;;5012990;28;20473;-47
2022/01/27 10:47:20;;;;;;;33.17;18.83;;;;;;;;;;5013363;28;20077;-51
2022/01/27 10:50:01;;;;;;;31.80;17.27;;;;;;;;;;5014096;28;20026;-47
2022/01/27 10:52:45;;;;;;;30.33;16.95;;;;;;;;;;5014528;28;20088;-40
2022/01/27 10:55:13;;;;;;;29.25;17.45;;;;;;;;;;5013998;28;20037;-44
2022/01/27 10:57:39;;;;;;;35.88;18.77;;;;;;;;;;5013994;28;20029;-48
2022/01/27 11:00:24;;;;;;;33.22;18.67;;;;;;;;;;5013952;28;20048;-47
2022/01/27 11:02:57;;;;;;;30.00;17.70;;;;;;;;;;5013915;28;20022;-45
2022/01/27 11:05:29;;;;;;;32.05;17.33;;;;;;;;;;5012681;28;20021;-42
2022/01/27 11:07:56;;;;;;;28.00;16.40;;;;;;;;;;5014204;28;20033;-54
2022/01/27 11:10:21;;;;;;;26.25;16.55;;;;;;;;;;5013884;28;20075;-52
2022/01/27 11:12:49;;;;;;;29.98;16.52;;;;;;;;;;5013727;28;20113;-56
2022/01/27 11:15:16;;;;;;;24.75;15.27;;;;;;;;;;5013708;28;20033;-41
2022/01/27 11:17:44;;;;;;;26.50;15.07;;;;;;;;;;5002598;28;20488;-56
2022/01/27 11:27:54;;;;;;;26.83;14.90;;;;;;;;;;4992598;28;20481;-59
2022/01/27 11:30:30;;;;;;;27.55;16.05;;;;;;;;;;4991937;28;20128;-54
2022/01/27 11:33:10;;;;;;;29.35;16.65;;;;;;;;;;4992649;28;20031;-58
2022/01/27 11:35:36;;;;;;;29.13;17.02;;;;;;;;;;4992247;28;20068;-49
2022/01/27 11:38:04;;;;;;;30.58;17.27;;;;;;;;;;4991967;28;20101;-58
2022/01/27 11:40:41;;;;;;;30.05;17.80;;;;;;;;;;4992246;28;20081;-56
2022/01/27 11:43:12;;;;;;;30.58;18.10;;;;;;;;;;4992225;28;20064;-46
2022/01/27 11:45:58;;;;;;;31.23;18.15;;;;;;;;;;4990885;28;20037;-51
2022/01/27 11:48:26;;;;;;;32.55;18.17;;;;;;;;;;4991705;28;20066;-47
2022/01/27 11:51:12;;;;;;;27.27;16.02;;;;;;;;;;4992121;28;20026;-47
2022/01/27 11:53:44;;;;;;;30.52;17.13;;;;;;;;;;4992301;28;20027;-48
2022/01/27 11:56:31;;;;;;;25.73;15.50;;;;;;;;;;4991342;28;20028;-46
2022/01/27 11:58:56;;;;;;;33.30;15.30;;;;;;;;;;4991679;28;20080;-43
2022/01/27 12:01:29;;;;;;;27.15;14.38;;;;;;;;;;4992045;28;20030;-52
2022/01/27 12:04:15;;;;;;;29.98;16.30;;;;;;;;;;4990460;28;20033;-48
2022/01/27 12:06:47;;;;;;;29.45;15.95;;;;;;;;;;4992195;28;20037;-46
2022/01/27 12:09:18;;;;;;;32.53;18.92;;;;;;;;;;4991982;28;20034;-41
2022/01/27 12:11:48;;;;;;;31.02;17.00;;;;;;;;;;4991715;28;20018;-46
2022/01/27 12:14:15;;;;;;;28.75;15.20;;;;;;;;;;4991592;28;20528;-48
2022/01/27 12:16:54;;;;;;;29.63;15.40;;;;;;;;;;4991472;28;20034;-46
2022/01/27 12:19:20;;;;;;;28.85;15.88;;;;;;;;;;4991585;28;20034;-44
2022/01/27 12:21:51;;;;;;;36.00;19.40;;;;;;;;;;4991863;28;20026;-45
2022/01/27 12:24:25;;;;;;;29.42;16.45;;;;;;;;;;4991716;28;20035;-45
2022/01/27 12:26:55;;;;;;;28.75;16.23;;;;;;;;;;4991086;28;20080;-48
2022/01/27 12:29:42;;;;;;;22.58;14.45;;;;;;;;;;4991636;28;20074;-44
2022/01/27 12:32:17;;;;;;;27.70;14.63;;;;;;;;;;4991425;28;20425;-45
2022/01/27 12:35:04;;;;;;;24.50;14.10;;;;;;;;;;4991339;28;20061;-46
2022/01/27 12:37:38;;;;;;;21.70;13.18;;;;;;;;;;4991520;28;20038;-45
2022/01/27 12:40:25;;;;;;;27.85;15.43;;;;;;;;;;4989957;28;20402;-45
2022/01/27 12:43:06;;;;;;;25.15;15.25;;;;;;;;;;4991637;28;20046;-49
2022/01/27 12:45:35;;;;;;;25.35;16.00;;;;;;;;;;4991278;28;20581;-44
2022/01/27 12:48:07;;;;;;;34.20;18.73;;;;;;;;;;4991214;28;20470;-46
2022/01/27 12:50:35;;;;;;;29.75;17.13;;;;;;;;;;4991573;28;20029;-47
2022/01/27 12:53:03;;;;;;;31.98;17.13;;;;;;;;;;4991203;28;20065;-44
2022/01/27 12:55:34;;;;;;;33.20;16.75;;;;;;;;;;4991452;28;20120;-46
2022/01/27 12:58:03;;;;;;;31.45;17.40;;;;;;;;;;4991363;28;20023;-46
2022/01/27 13:00:36;;;;;;;26.02;15.38;;;;;;;;;;4991216;28;20078;-49
2022/01/27 13:03:02;;;;;;;28.88;14.95;;;;;;;;;;4989735;28;20390;-46
2022/01/27 13:05:36;;;;;;;29.15;14.93;;;;;;;;;;4991263;28;20378;-47
2022/01/27 13:08:32;;;;;;;25.08;13.80;;;;;;;;;;4991392;28;20058;-45
2022/01/27 13:11:09;;;;;;;22.75;13.13;;;;;;;;;;4991509;28;20027;-46
2022/01/27 13:13:37;;;;;;;23.73;13.23;;;;;;;;;;4990936;28;20501;-45
2022/01/27 13:16:15;;;;;;;25.05;14.32;;;;;;;;;;4991063;28;20773;-46
2022/01/27 13:18:56;;;;;;;28.05;13.32;;;;;;;;;;4991246;28;20034;-44
2022/01/27 13:21:29;;;;;;;22.73;12.63;;;;;;;;;;4991041;28;20485;-48
2022/01/27 13:24:02;;;;;;;15.70;9.55;;;;;;;;;;5007834;28;20045;-45
2022/01/27 13:26:28;;;;;;;16.25;10.18;;;;;;;;;;5010837;28;20392;-44
2022/01/27 13:28:56;;;;;;;20.25;12.48;;;;;;;;;;5012091;28;20053;-46
2022/01/27 13:31:24;;;;;;;19.10;11.93;;;;;;;;;;5013875;28;20029;-44
2022/01/27 13:33:50;;;;;;;23.98;13.20;;;;;;;;;;5013647;28;20057;-46
2022/01/27 13:36:21;;;;;;;22.00;12.70;;;;;;;;;;5014030;28;20065;-46
2022/01/27 13:39:13;;;;;;;23.42;13.57;;;;;;;;;;5013925;28;20034;-45
2022/01/27 13:41:44;;;;;;;23.17;11.77;;;;;;;;;;5012447;28;20041;-46
2022/01/27 13:44:11;;;;;;;22.92;12.75;;;;;;;;;;5013924;28;20385;-47
2022/01/27 13:46:59;;;;;;;18.42;11.10;;;;;;;;;;5013994;28;20436;-47
2022/01/27 13:49:27;;;;;;;18.52;10.77;;;;;;;;;;5013786;28;20053;-47
2022/01/27 13:52:25;;;;;;;18.33;10.15;;;;;;;;;;5013875;28;20440;-47
2022/01/27 13:54:51;;;;;;;19.17;10.35;;;;;;;;;;5013320;28;20488;-43
2022/01/27 13:57:25;;;;;;;18.13;10.32;;;;;;;;;;5013679;28;20026;-43
2022/01/27 13:59:58;;;;;;;16.80;9.80;;;;;;;;;;5012530;28;20112;-42
2022/01/27 14:02:24;;;;;;;17.02;9.98;;;;;;;;;;5013688;28;20030;-43
2022/01/27 14:04:57;;;;;;;15.77;9.85;;;;;;;;;;5013488;28;20026;-47
2022/01/27 14:07:37;;;;;;;16.23;8.70;;;;;;;;;;5013716;28;20049;-45
2022/01/27 14:10:25;;;;;;;19.73;9.57;;;;;;;;;;5013667;28;20504;-44
2022/01/27 14:13:03;;;;;;;16.90;9.45;;;;;;;;;;5013601;28;20033;-44
2022/01/27 14:15:31;;;;;;;16.35;8.93;;;;;;;;;;5013425;28;20505;-44
2022/01/27 14:18:14;;;;;;;21.13;9.45;;;;;;;;;;5011892;28;20030;-43
2022/01/27 14:21:10;;;;;;;14.82;7.90;;;;;;;;;;5013152;28;20241;-42
2022/01/27 14:26:37;;;;;;;18.00;9.00;;;;;;;;;;4993679;28;20026;-44
2022/01/27 14:29:05;;;;;;;20.45;8.82;;;;;;;;;;4991948;28;20046;-45
2022/01/27 14:31:32;;;;;;;17.92;8.82;;;;;;;;;;4993316;28;20482;-44
2022/01/27 14:33:58;;;;;;;15.88;9.50;;;;;;;;;;4993338;28;20068;-43
2022/01/27 14:36:24;;;;;;;21.95;9.82;;;;;;;;;;4993490;28;20565;-44
2022/01/27 14:38:51;;;;;;;19.73;9.63;;;;;;;;;;4992941;28;20474;-44
2022/01/27 14:41:17;;;;;;;15.93;9.13;;;;;;;;;;4993276;28;20037;-43
2022/01/27 14:43:43;;;;;;;17.33;8.82;;;;;;;;;;4993253;28;20030;-46
2022/01/27 14:46:12;;;;;;;17.08;9.07;;;;;;;;;;4993078;28;20084;-50
2022/01/27 14:48:40;;;;;;;19.48;9.02;;;;;;;;;;4993244;28;20084;-42
2022/01/27 14:51:08;;;;;;;18.27;10.07;;;;;;;;;;4992945;28;20386;-45
2022/01/27 14:53:35;;;;;;;18.80;10.60;;;;;;;;;;4993022;28;20030;-44
2022/01/27 14:56:02;;;;;;;16.92;9.23;;;;;;;;;;4992997;28;20034;-43
2022/01/27 14:58:27;;;;;;;15.90;8.90;;;;;;;;;;4993191;28;20030;-45
2022/01/27 15:00:53;;;;;;;16.83;8.88;;;;;;;;;;4992798;28;20053;-43
2022/01/27 15:03:18;;;;;;;15.75;8.68;;;;;;;;;;4993167;28;20026;-47
2022/01/27 15:05:44;;;;;;;16.42;9.05;;;;;;;;;;4993234;28;20026;-44
2022/01/27 15:08:09;;;;;;;16.17;9.20;;;;;;;;;;4992846;28;20037;-45
2022/01/27 15:10:35;;;;;;;22.48;11.02;;;;;;;;;;4993051;28;20037;-45
2022/01/27 15:13:00;;;;;;;20.05;10.43;;;;;;;;;;4992559;28;20030;-43
2022/01/27 15:21:05;;;;;;;19.58;10.07;;;;;;;;;;4992622;28;20540;-43
2022/01/27 15:23:32;;;;;;;18.10;10.05;;;;;;;;;;4993351;28;20035;-44
2022/01/27 15:25:59;;;;;;;19.88;10.27;;;;;;;;;;4992486;28;20030;-44
2022/01/27 15:28:25;;;;;;;19.25;9.05;;;;;;;;;;4992544;28;20513;-43
2022/01/27 15:30:51;;;;;;;17.20;9.35;;;;;;;;;;4992706;28;20046;-43